createdAt,value
2022-08-16T00:00:38.543Z,20.80
2022-08-16T00:05:47.840Z,20.25
2022-08-16T00:10:53.393Z,19.83
2022-08-16T00:15:56.706Z,19.05
2022-08-16T00:21:03.886Z,19.58
2022-08-16T00:26:34.482Z,19.90
2022-08-16T00:31:58.688Z,20.08
2022-08-16T00:36:56.478Z,20.75
2022-08-16T00:42:01.761Z,21.08
2022-08-16T00:47:08.863Z,21.02
2022-08-16T00:52:29.536Z,22.13
2022-08-16T00:57:58.369Z,22.20
2022-08-16T01:02:59.759Z,21.80
2022-08-16T01:08:35.972Z,20.85
2022-08-16T01:13:32.809Z,19.23
2022-08-16T01:18:41.581Z,20.88
2022-08-16T01:23:58.651Z,22.55
2022-08-16T01:29:09.739Z,17.73
2022-08-16T01:34:25.149Z,20.30
2022-08-16T01:39:35.330Z,20.80
2022-08-16T01:44:39.507Z,21.63
2022-08-16T01:50:40.840Z,22.10
2022-08-16T01:55:09.890Z,21.58
2022-08-16T02:00:19.539Z,22.63
2022-08-16T02:05:23.615Z,21.38
2022-08-16T02:10:28.472Z,20.85
2022-08-16T02:15:35.383Z,18.85
2022-08-16T02:20:42.754Z,21.52
2022-08-16T02:25:53.669Z,21.70
2022-08-16T02:31:02.836Z,21.63
2022-08-16T02:36:06.387Z,21.73
2022-08-16T02:41:18.899Z,21.80
2022-08-16T02:46:30.219Z,23.33
2022-08-16T02:51:39.158Z,20.42
2022-08-16T02:56:47.849Z,22.52
2022-08-16T03:01:51.958Z,22.38
2022-08-16T03:07:05.933Z,22.00
2022-08-16T03:12:19.348Z,21.50
2022-08-16T03:17:24.004Z,21.95
2022-08-16T03:22:37.971Z,22.02
2022-08-16T03:27:48.163Z,23.05
2022-08-16T03:32:53.695Z,20.52
2022-08-16T03:38:03.804Z,21.95
2022-08-16T03:43:19.763Z,18.58
2022-08-16T03:48:36.301Z,21.33
2022-08-16T03:54:00.895Z,19.23
2022-08-16T03:59:07.218Z,20.80
2022-08-16T04:04:32.705Z,21.55
2022-08-16T04:09:38.163Z,20.58
2022-08-16T04:14:46.870Z,19.65
2022-08-16T04:19:54.943Z,21.67
2022-08-16T04:25:02.055Z,22.42
2022-08-16T04:30:31.861Z,21.33
2022-08-16T04:35:36.192Z,23.05
2022-08-16T04:40:43.084Z,21.65
2022-08-16T04:46:00.508Z,23.85
2022-08-16T04:51:12.309Z,22.35
2022-08-16T04:56:22.939Z,22.73
2022-08-16T05:01:56.054Z,22.42
2022-08-16T05:06:53.456Z,24.90
2022-08-16T05:12:05.477Z,22.02
2022-08-16T05:17:10.486Z,21.73
2022-08-16T05:22:18.026Z,20.98
2022-08-16T05:27:23.442Z,21.58
2022-08-16T05:32:32.986Z,19.63
2022-08-16T05:37:40.145Z,24.80
2022-08-16T05:42:47.729Z,22.02
2022-08-16T05:47:59.735Z,20.52
2022-08-16T05:53:10.754Z,13.80
2022-08-16T06:03:38.510Z,13.00
2022-08-16T06:08:51.005Z,13.48
2022-08-16T06:13:58.538Z,13.60
2022-08-16T06:24:53.521Z,11.10
2022-08-16T06:29:50.646Z,12.18
2022-08-16T06:35:02.346Z,10.98
2022-08-16T06:40:12.747Z,11.48
2022-08-16T06:45:23.991Z,11.90
2022-08-16T06:50:42.352Z,10.00
2022-08-16T06:55:46.660Z,10.85
2022-08-16T07:00:51.479Z,10.38
2022-08-16T07:05:57.237Z,11.10
2022-08-16T07:11:05.983Z,9.80
2022-08-16T07:16:20.490Z,9.27
2022-08-16T07:21:26.608Z,9.93
2022-08-16T07:26:30.385Z,9.98
2022-08-16T07:31:37.595Z,11.23
2022-08-16T07:36:58.044Z,9.10
2022-08-16T07:42:10.290Z,9.55
2022-08-16T07:47:31.422Z,9.23
2022-08-16T07:52:38.963Z,10.82
2022-08-16T07:57:58.123Z,9.05
2022-08-16T08:03:05.070Z,9.27
2022-08-16T08:08:50.584Z,9.10
2022-08-16T08:13:42.335Z,9.65
2022-08-16T08:18:56.053Z,8.70
2022-08-16T08:24:09.373Z,8.05
2022-08-16T08:29:14.678Z,8.45
2022-08-16T08:34:25.987Z,8.65
2022-08-16T08:39:31.218Z,7.53
2022-08-16T08:44:37.509Z,7.60
2022-08-16T08:49:46.404Z,8.65
2022-08-16T08:55:03.316Z,8.05
2022-08-16T09:05:20.785Z,7.25
2022-08-16T09:10:30.235Z,7.60
2022-08-16T09:15:33.746Z,7.57
2022-08-16T09:20:59.410Z,6.53
2022-08-16T09:31:25.892Z,6.38
2022-08-16T09:36:31.977Z,7.47
2022-08-16T09:41:37.716Z,6.75
2022-08-16T09:46:48.253Z,6.88
2022-08-16T09:51:54.796Z,6.50
2022-08-16T09:57:00.577Z,6.93
2022-08-16T10:02:27.201Z,6.78
2022-08-16T10:07:44.522Z,7.20
2022-08-16T10:13:14.259Z,6.18
2022-08-16T10:19:02.320Z,5.53
2022-08-16T10:23:41.475Z,6.10
2022-08-16T10:28:50.347Z,5.72
2022-08-16T10:33:54.271Z,5.72
2022-08-16T10:44:02.325Z,5.15
2022-08-16T10:49:05.859Z,5.28
2022-08-16T10:54:29.529Z,4.60
2022-08-16T10:59:43.981Z,5.07
2022-08-16T11:05:10.679Z,5.05
2022-08-16T11:10:20.711Z,5.30
2022-08-16T11:15:27.488Z,4.88
2022-08-16T11:20:42.326Z,5.05
2022-08-16T11:26:16.135Z,4.93
2022-08-16T11:31:11.602Z,4.97
2022-08-16T11:36:27.925Z,5.78
2022-08-16T11:41:34.254Z,4.97
2022-08-16T11:46:45.012Z,5.20
2022-08-16T11:51:51.642Z,5.20
2022-08-16T11:56:56.795Z,5.97
2022-08-16T12:02:31.622Z,5.40
2022-08-16T12:07:25.017Z,5.05
2022-08-16T12:12:28.681Z,5.55
2022-08-16T12:17:33.400Z,5.37
2022-08-16T12:22:37.130Z,5.18
2022-08-16T12:32:51.379Z,4.95
2022-08-16T12:37:57.781Z,4.75
2022-08-16T12:43:02.523Z,4.32
2022-08-16T12:48:33.840Z,4.47
2022-08-16T12:53:40.075Z,5.28
2022-08-16T12:58:48.967Z,5.05
2022-08-16T13:04:20.510Z,5.25
2022-08-16T13:09:26.022Z,4.78
2022-08-16T13:14:33.896Z,4.22
2022-08-16T13:20:06.021Z,4.95
2022-08-16T13:25:02.451Z,5.00
2022-08-16T13:30:35.439Z,4.55
2022-08-16T13:35:36.352Z,4.75
2022-08-16T13:40:46.965Z,4.47
2022-08-16T13:45:51.629Z,4.40
2022-08-16T13:51:04.104Z,4.80
2022-08-16T13:56:07.592Z,4.40
2022-08-16T14:01:13.797Z,4.60
2022-08-16T14:06:18.878Z,4.43
2022-08-16T14:11:22.209Z,4.30
2022-08-16T14:16:34.050Z,4.23
2022-08-16T14:21:40.950Z,5.18
2022-08-16T14:26:47.591Z,4.82
2022-08-16T14:31:53.517Z,4.60
2022-08-16T14:36:59.570Z,3.80
2022-08-16T14:42:06.246Z,3.70
2022-08-16T14:47:09.518Z,3.65
2022-08-16T14:52:44.442Z,3.83
2022-08-16T14:57:42.692Z,3.95
2022-08-16T15:07:54.700Z,3.75
2022-08-16T15:12:58.482Z,3.83
2022-08-16T15:18:02.320Z,3.53
2022-08-16T15:23:08.880Z,3.85
2022-08-16T15:28:23.526Z,3.97
2022-08-16T15:33:42.171Z,3.75
2022-08-16T15:38:56.825Z,3.83
2022-08-16T15:44:10.870Z,3.78
2022-08-16T15:49:15.540Z,3.13
2022-08-16T15:54:30.937Z,3.05
2022-08-16T15:59:49.167Z,3.42
2022-08-16T16:04:56.643Z,3.50
2022-08-16T16:10:04.624Z,3.45
2022-08-16T16:15:08.327Z,3.30
2022-08-16T16:20:14.570Z,3.67
2022-08-16T16:25:20.169Z,3.05
2022-08-16T16:30:37.508Z,3.63
2022-08-16T16:35:47.906Z,3.10
2022-08-16T16:41:02.596Z,3.63
2022-08-16T16:46:42.204Z,3.55
2022-08-16T16:51:31.333Z,3.08
2022-08-16T16:56:37.688Z,3.35
2022-08-16T17:01:57.585Z,3.42
2022-08-16T17:07:04.198Z,3.38
2022-08-16T17:12:24.505Z,3.53
2022-08-16T17:17:29.667Z,2.95
2022-08-16T17:22:33.237Z,3.00
2022-08-16T17:27:39.794Z,3.95
2022-08-16T17:32:48.056Z,3.40
2022-08-16T17:37:54.022Z,3.42
2022-08-16T17:42:59.753Z,3.50
2022-08-16T17:48:03.293Z,3.92
2022-08-16T17:53:08.122Z,3.77
2022-08-16T17:58:22.976Z,3.75
2022-08-16T18:04:06.764Z,4.18
2022-08-16T18:09:01.609Z,4.20
2022-08-16T18:14:08.921Z,4.47
2022-08-16T18:19:12.490Z,4.15
2022-08-16T18:24:16.182Z,4.53
2022-08-16T18:29:21.299Z,4.53
2022-08-16T18:34:24.694Z,4.93
2022-08-16T18:39:28.007Z,5.03
2022-08-16T18:44:36.373Z,4.72
2022-08-16T18:49:39.658Z,5.20
2022-08-16T18:55:02.044Z,4.65
2022-08-16T19:00:12.251Z,5.53
2022-08-16T19:05:23.207Z,5.60
2022-08-16T19:10:26.623Z,5.13
2022-08-16T19:15:31.324Z,5.18
2022-08-16T19:20:35.037Z,5.40
2022-08-16T19:25:48.670Z,5.53
2022-08-16T19:30:54.417Z,5.78
2022-08-16T19:35:57.665Z,5.22
2022-08-16T19:41:01.322Z,5.82
2022-08-16T19:46:06.422Z,5.50
2022-08-16T19:51:11.576Z,6.38
2022-08-16T19:56:14.876Z,6.10
2022-08-16T20:01:19.402Z,6.32
2022-08-16T20:06:37.631Z,6.57
2022-08-16T20:11:42.261Z,5.78
2022-08-16T20:16:46.916Z,6.28
2022-08-16T20:21:50.232Z,6.55
2022-08-16T20:26:53.923Z,6.20
2022-08-16T20:31:58.695Z,6.60
2022-08-16T20:37:02.056Z,6.72
2022-08-16T20:42:05.680Z,6.70
2022-08-16T20:47:11.335Z,6.30
2022-08-16T20:52:18.640Z,6.07
2022-08-16T20:57:22.582Z,6.55
2022-08-16T21:02:28.021Z,6.30
2022-08-16T21:12:37.713Z,6.25
2022-08-16T21:17:43.220Z,6.72
2022-08-16T21:22:52.628Z,6.70
2022-08-16T21:28:40.138Z,6.72
2022-08-16T21:33:23.635Z,6.60
2022-08-16T21:38:28.876Z,6.97
2022-08-16T21:43:33.691Z,7.43
2022-08-16T21:48:40.547Z,6.33
2022-08-16T21:53:44.518Z,7.10
2022-08-16T21:58:52.780Z,6.75
2022-08-16T22:04:35.369Z,6.85
2022-08-16T22:09:21.470Z,6.80
2022-08-16T22:14:24.687Z,7.35
2022-08-16T22:19:29.394Z,7.70
2022-08-16T22:24:33.007Z,6.82
2022-08-16T22:29:42.165Z,7.20
2022-08-16T22:34:48.299Z,5.82
2022-08-16T22:39:52.476Z,6.75
2022-08-16T22:44:56.000Z,7.55
2022-08-16T22:50:01.158Z,6.90
2022-08-16T22:55:05.193Z,6.88
2022-08-16T23:00:11.578Z,7.63
2022-08-16T23:05:18.717Z,7.20
2022-08-16T23:10:22.943Z,7.18
2022-08-16T23:15:27.967Z,7.85
2022-08-16T23:20:33.307Z,7.50
2022-08-16T23:30:42.253Z,7.75
2022-08-16T23:35:48.803Z,8.03
2022-08-16T23:40:53.294Z,8.57
2022-08-16T23:46:00.646Z,8.18
2022-08-16T23:51:08.547Z,8.88
2022-08-16T23:56:14.009Z,8.30
